CYXE

Saskatoon John G. Diefenbaker International Airport

Saskatoon, Saskatchewan, Canada
METAR CYXE 170700Z 21006KT 15SM FEW160 M09/M11 A2985 RMK AC1 SLP142
Observed Flight Rules
Dec-17 @ 07:00 UTC (an hour ago) Visual Flight Rules
Wind Visibility Clouds
210° at 6 knots 15 miles
  • Few at 16,000' AGL
Temperatures Readings
Current -9°C / 16°F
Dewpoint -11°C / 12°F
Humidity 86%
Altimeter 29.85" Hg
Pressure 1014.2 hPa
Elevation 504
METAR CYXE 170700Z 21006KT 15SM FEW160 M09/M11 A2985 RMK AC1 SLP142
Observed Flight Rules
Dec-17 @ 07:00 UTC
(an hour ago)
VFR
Wind Visibility
210° at 6 knots 15 miles
Clouds
  • Few at 16,000' AGL
Temperature Dewpoint
-9°C / 16°F -11°C / 12°F
Humidity Altimeter Pressure
86% 29.85" Hg 1014.2 hPa